Daocheng, China
Current Conditions -  °F | °C
As of 8:00 PM on Wednesday 22 Oct 2014 (Local Time) from ZUUU Reporting Station
Scattered Clouds Scattered Clouds  
Wind Chill: 66°   Ceiling: Unl
Heat Index: 66°   Visibility: 5mi
Dew Point: 57°   Wind: 4mph
Humidity: 73%   Direction: 10°N
Pressure: 30.15"   Gusts: NA
Location:  29.05°N, 100.3°E
Report Text: ZUUU 221200Z 01002MPS 8000 SCT050 19/14 Q1021 NOSIG
Loading
Personal Weather Stations






























Interactive Weather Map
Tropical Storm Tracking
New forecast layout! Learn more

10-Day Weather Forecast

Advertisements
Track Severe Weather on mobile